createdAt,value
2022-08-18T00:00:20.745Z,67.40
2022-08-18T00:00:52.619Z,67.30
2022-08-18T00:01:26.157Z,67.20
2022-08-18T00:02:12.725Z,67.20
2022-08-18T00:02:54.431Z,67.10
2022-08-18T00:03:55.424Z,67.10
2022-08-18T00:04:35.306Z,66.90
2022-08-18T00:05:10.439Z,66.90
2022-08-18T00:05:46.518Z,66.70
2022-08-18T00:06:19.233Z,66.90
2022-08-18T00:06:50.987Z,66.70
2022-08-18T00:07:25.978Z,66.70
2022-08-18T00:07:58.970Z,66.70
2022-08-18T00:08:30.763Z,66.80
2022-08-18T00:09:06.772Z,66.60
2022-08-18T00:09:41.490Z,66.50
2022-08-18T00:10:15.571Z,66.60
2022-08-18T00:10:50.831Z,66.60
2022-08-18T00:11:23.661Z,66.60
2022-08-18T00:11:55.495Z,66.70
2022-08-18T00:12:38.814Z,66.60
2022-08-18T00:13:10.619Z,66.50
2022-08-18T00:13:42.400Z,66.50
2022-08-18T00:14:22.251Z,66.40
2022-08-18T00:14:56.380Z,66.70
2022-08-18T00:15:28.326Z,66.50
2022-08-18T00:16:00.140Z,66.70
2022-08-18T00:16:32.023Z,66.70
2022-08-18T00:17:04.423Z,66.50
2022-08-18T00:17:36.845Z,67.40
2022-08-18T00:18:08.639Z,67.30
2022-08-18T00:18:40.426Z,67.00
2022-08-18T00:19:12.281Z,67.00
2022-08-18T00:19:45.962Z,67.10
2022-08-18T00:20:23.965Z,66.80
2022-08-18T00:20:55.822Z,67.10
2022-08-18T00:21:27.805Z,67.30
2022-08-18T00:21:59.829Z,67.10
2022-08-18T00:22:31.669Z,67.60
2022-08-18T00:23:03.482Z,66.80
2022-08-18T00:23:35.265Z,66.90
2022-08-18T00:24:07.215Z,67.00
2022-08-18T00:24:39.076Z,66.70
2022-08-18T00:25:21.131Z,66.60
2022-08-18T00:25:52.898Z,66.50
2022-08-18T00:26:24.723Z,66.60
2022-08-18T00:26:56.915Z,66.50
2022-08-18T00:27:30.969Z,66.50
2022-08-18T00:28:03.039Z,66.50
2022-08-18T00:28:34.896Z,66.50
2022-08-18T00:29:06.751Z,66.60
2022-08-18T00:29:38.543Z,66.50
2022-08-18T00:30:14.770Z,66.50
2022-08-18T00:30:46.560Z,66.60
2022-08-18T00:31:19.877Z,66.60
2022-08-18T00:31:51.758Z,66.60
2022-08-18T00:32:36.130Z,66.80
2022-08-18T00:33:08.024Z,66.60
2022-08-18T00:33:39.838Z,67.10
2022-08-18T00:34:11.669Z,67.40
2022-08-18T00:34:43.508Z,67.20
2022-08-18T00:35:28.963Z,67.00
2022-08-18T00:36:01.120Z,66.60
2022-08-18T00:36:34.650Z,66.70
2022-08-18T00:37:06.577Z,67.00
2022-08-18T00:37:38.378Z,66.90
2022-08-18T00:38:24.755Z,67.30
2022-08-18T00:38:57.163Z,67.40
2022-08-18T00:39:34.249Z,67.00
2022-08-18T00:40:13.335Z,67.00
2022-08-18T00:40:49.093Z,66.80
2022-08-18T00:41:21.714Z,66.80
2022-08-18T00:41:53.486Z,66.70
2022-08-18T00:42:31.078Z,67.20
2022-08-18T00:43:05.574Z,66.60
2022-08-18T00:43:47.944Z,66.50
2022-08-18T00:44:19.729Z,66.50
2022-08-18T00:44:51.998Z,66.40
2022-08-18T00:45:30.142Z,66.40
2022-08-18T00:46:02.280Z,66.30
2022-08-18T00:46:37.282Z,66.40
2022-08-18T00:47:09.196Z,66.40
2022-08-18T00:47:52.543Z,66.30
2022-08-18T00:48:24.710Z,66.30
2022-08-18T00:48:57.895Z,66.50
2022-08-18T00:49:29.693Z,66.40
2022-08-18T00:50:01.906Z,66.30
2022-08-18T00:50:43.129Z,66.20
2022-08-18T00:51:33.415Z,66.30
2022-08-18T00:52:06.621Z,66.40
2022-08-18T00:52:39.182Z,66.50
2022-08-18T00:53:44.060Z,66.30
2022-08-18T00:54:26.453Z,66.50
2022-08-18T00:54:59.514Z,66.60
2022-08-18T00:55:33.540Z,66.50
2022-08-18T00:56:11.479Z,66.20
2022-08-18T00:56:53.518Z,66.30
2022-08-18T00:57:25.937Z,66.10
2022-08-18T00:58:06.574Z,66.20
2022-08-18T00:58:51.760Z,66.10
2022-08-18T00:59:33.499Z,66.20
2022-08-18T01:00:13.042Z,66.20
2022-08-18T01:00:46.777Z,66.30
2022-08-18T01:01:25.850Z,66.30
2022-08-18T01:02:02.573Z,66.10
2022-08-18T01:02:42.192Z,66.10
2022-08-18T01:03:25.066Z,65.70
2022-08-18T01:04:05.298Z,66.20
2022-08-18T01:05:01.210Z,66.40
2022-08-18T01:05:43.166Z,66.20
2022-08-18T01:06:32.275Z,66.10
2022-08-18T01:07:20.997Z,66.30
2022-08-18T01:07:53.343Z,66.30
2022-08-18T01:08:29.119Z,66.20
2022-08-18T01:09:03.163Z,66.30
2022-08-18T01:09:35.559Z,66.40
2022-08-18T01:10:07.973Z,66.80
2022-08-18T01:10:40.615Z,66.30
2022-08-18T01:11:12.443Z,66.30
2022-08-18T01:11:44.742Z,66.30
2022-08-18T01:12:44.207Z,66.40
2022-08-18T01:13:09.382Z,66.30
2022-08-18T01:13:42.951Z,66.30
2022-08-18T01:14:18.312Z,66.40
2022-08-18T01:14:50.160Z,66.40
2022-08-18T01:15:28.219Z,66.40
2022-08-18T01:16:24.989Z,66.40
2022-08-18T01:17:16.195Z,66.40
2022-08-18T01:18:07.304Z,67.70
2022-08-18T01:18:57.568Z,66.50
2022-08-18T01:19:48.706Z,66.50
2022-08-18T01:20:48.370Z,66.70
2022-08-18T01:21:46.726Z,67.30
2022-08-18T01:22:32.969Z,67.30
2022-08-18T01:23:14.380Z,67.20
2022-08-18T01:23:48.652Z,67.70
2022-08-18T01:24:44.655Z,67.70
2022-08-18T01:25:40.271Z,68.20
2022-08-18T01:26:13.158Z,67.60
2022-08-18T01:26:50.396Z,67.10
2022-08-18T01:27:22.492Z,67.60
2022-08-18T01:27:57.012Z,68.30
2022-08-18T01:28:39.077Z,67.80
2022-08-18T01:29:11.723Z,67.30
2022-08-18T01:29:50.801Z,67.10
2022-08-18T01:30:25.738Z,67.70
2022-08-18T01:30:59.346Z,67.60
2022-08-18T01:31:54.567Z,67.40
2022-08-18T01:32:27.583Z,67.40
2022-08-18T01:32:59.519Z,68.20
2022-08-18T01:33:38.904Z,67.70
2022-08-18T01:34:11.529Z,67.50
2022-08-18T01:34:46.446Z,67.90
2022-08-18T01:35:21.492Z,67.90
2022-08-18T01:35:54.470Z,67.70
2022-08-18T01:36:26.663Z,67.60
2022-08-18T01:36:59.226Z,67.20
2022-08-18T01:37:31.355Z,67.70
2022-08-18T01:38:03.146Z,67.40
2022-08-18T01:38:35.964Z,67.80
2022-08-18T01:39:11.033Z,67.70
2022-08-18T01:41:21.930Z,68.30
2022-08-18T01:41:22.597Z,68.80
2022-08-18T01:41:30.721Z,68.90
2022-08-18T01:42:04.620Z,68.20
2022-08-18T01:42:38.484Z,68.70
2022-08-18T01:43:10.368Z,68.70
2022-08-18T01:43:42.228Z,69.00
2022-08-18T01:44:14.035Z,68.10
2022-08-18T01:44:47.858Z,68.20
2022-08-18T01:45:20.693Z,68.50
2022-08-18T01:45:52.850Z,69.10
2022-08-18T01:46:24.847Z,69.10
2022-08-18T01:46:56.638Z,68.70
2022-08-18T01:47:28.770Z,68.20
2022-08-18T01:48:04.818Z,68.20
2022-08-18T01:48:38.417Z,67.90
2022-08-18T01:49:10.835Z,67.90
2022-08-18T01:49:43.089Z,67.80
2022-08-18T01:50:15.146Z,68.40
2022-08-18T01:50:49.341Z,68.50
2022-08-18T01:51:38.062Z,68.10
2022-08-18T01:52:20.266Z,67.80
2022-08-18T01:52:53.519Z,67.60
2022-08-18T01:53:26.574Z,67.70
2022-08-18T01:53:59.280Z,67.80
2022-08-18T01:54:31.273Z,67.80
2022-08-18T01:55:04.302Z,69.10
2022-08-18T01:55:39.118Z,68.70
2022-08-18T01:56:10.945Z,68.00
2022-08-18T01:56:43.506Z,68.30
2022-08-18T01:57:16.054Z,68.40
2022-08-18T01:57:47.934Z,68.30
2022-08-18T01:58:31.423Z,68.30
2022-08-18T01:59:05.002Z,69.20
2022-08-18T01:59:36.771Z,69.70
2022-08-18T02:00:12.563Z,69.10
2022-08-18T02:00:44.494Z,69.50
2022-08-18T02:01:16.546Z,69.50
2022-08-18T02:01:53.453Z,69.50
2022-08-18T02:02:32.711Z,69.80
2022-08-18T02:03:09.376Z,69.10
2022-08-18T02:03:46.651Z,68.60
2022-08-18T02:04:36.461Z,68.40
2022-08-18T02:05:16.757Z,69.30
2022-08-18T02:05:51.197Z,68.80
2022-08-18T02:06:32.050Z,68.50
2022-08-18T02:07:11.146Z,68.50
2022-08-18T02:07:43.449Z,68.00
2022-08-18T02:08:16.501Z,68.20
2022-08-18T02:08:49.921Z,68.40
2022-08-18T02:09:26.118Z,68.60
2022-08-18T02:09:58.310Z,68.20
2022-08-18T02:10:31.591Z,68.10
2022-08-18T02:11:03.743Z,69.30
2022-08-18T02:11:35.517Z,69.80
2022-08-18T02:12:08.569Z,69.10
2022-08-18T02:12:41.423Z,68.90
2022-08-18T02:13:13.506Z,69.60
2022-08-18T02:13:45.309Z,69.30
2022-08-18T02:14:17.088Z,68.90
2022-08-18T02:14:57.153Z,68.80
2022-08-18T02:15:29.106Z,69.50
2022-08-18T02:16:01.615Z,69.10
2022-08-18T02:16:33.526Z,69.00
2022-08-18T02:17:08.290Z,69.10
2022-08-18T02:17:42.981Z,69.10
2022-08-18T02:18:46.908Z,68.90
2022-08-18T02:19:16.182Z,68.70
2022-08-18T02:19:48.310Z,69.90
2022-08-18T02:20:20.681Z,70.20
2022-08-18T02:20:52.578Z,69.80
2022-08-18T02:21:24.395Z,69.60
2022-08-18T02:21:56.230Z,69.60
2022-08-18T02:22:28.085Z,69.30
2022-08-18T02:23:02.655Z,69.40
2022-08-18T02:23:34.698Z,69.90
2022-08-18T02:24:06.617Z,69.90
2022-08-18T02:24:38.972Z,70.10
2022-08-18T02:25:11.999Z,70.00
2022-08-18T02:25:44.210Z,69.90
2022-08-18T02:26:18.434Z,69.70
2022-08-18T02:26:50.384Z,69.80
2022-08-18T02:27:22.181Z,70.40
2022-08-18T02:27:53.996Z,70.30
2022-08-18T02:28:30.198Z,70.30
2022-08-18T02:29:02.607Z,70.40
2022-08-18T02:29:35.302Z,70.10
2022-08-18T02:30:09.974Z,69.50
2022-08-18T02:30:41.949Z,69.70
2022-08-18T02:31:18.164Z,69.50
2022-08-18T02:31:49.925Z,69.20
2022-08-18T02:32:21.807Z,69.10
2022-08-18T02:32:57.940Z,69.50
2022-08-18T02:33:29.710Z,68.60
2022-08-18T02:34:01.567Z,68.90
2022-08-18T02:34:33.882Z,69.10
2022-08-18T02:35:08.407Z,69.10
2022-08-18T02:35:46.147Z,69.50
2022-08-18T02:36:18.885Z,69.30
2022-08-18T02:36:51.232Z,69.10
2022-08-18T02:37:23.190Z,68.90
2022-08-18T02:37:55.074Z,68.90
2022-08-18T02:38:27.043Z,68.90
2022-08-18T02:39:05.230Z,68.90
2022-08-18T02:39:38.390Z,68.60
2022-08-18T02:40:14.943Z,69.30
2022-08-18T02:40:47.139Z,69.60
2022-08-18T02:41:20.233Z,69.80
2022-08-18T02:41:52.023Z,69.90
2022-08-18T02:42:24.755Z,69.20
2022-08-18T02:42:56.540Z,69.60
2022-08-18T02:43:31.167Z,69.60
2022-08-18T02:44:07.901Z,69.20
2022-08-18T02:44:39.767Z,68.90
2022-08-18T02:45:13.215Z,68.70
2022-08-18T02:45:44.982Z,69.20
2022-08-18T02:46:16.793Z,69.60
2022-08-18T02:46:54.014Z,69.30
2022-08-18T02:47:29.101Z,68.80
2022-08-18T02:48:04.326Z,68.70
2022-08-18T02:48:36.199Z,68.60
2022-08-18T02:49:08.159Z,68.70
2022-08-18T02:49:40.454Z,69.00
2022-08-18T02:50:14.135Z,69.30
2022-08-18T02:50:48.588Z,69.40
2022-08-18T02:51:20.658Z,69.00
2022-08-18T02:51:58.502Z,70.20
2022-08-18T02:52:33.370Z,69.60
2022-08-18T02:53:05.139Z,69.70
2022-08-18T02:53:37.663Z,70.30
2022-08-18T02:54:11.423Z,69.70
2022-08-18T02:54:43.703Z,69.80
2022-08-18T02:55:16.377Z,70.10
2022-08-18T02:55:48.648Z,69.60
2022-08-18T02:56:40.366Z,69.10
2022-08-18T02:57:14.684Z,68.90
2022-08-18T02:57:48.998Z,69.20
2022-08-18T02:58:21.216Z,69.10
2022-08-18T02:59:00.281Z,68.90
2022-08-18T02:59:33.544Z,68.90
2022-08-18T03:00:05.998Z,69.50
2022-08-18T03:00:38.942Z,70.00
2022-08-18T03:01:10.968Z,69.30
2022-08-18T03:01:46.088Z,69.00
2022-08-18T03:02:18.435Z,68.90
2022-08-18T03:02:54.481Z,68.50
2022-08-18T03:03:26.322Z,68.50
2022-08-18T03:04:00.211Z,68.40
2022-08-18T03:04:32.124Z,68.40
2022-08-18T03:05:04.635Z,69.20
2022-08-18T03:05:36.410Z,68.90
2022-08-18T03:06:08.244Z,68.60
2022-08-18T03:06:40.380Z,68.50
2022-08-18T03:07:14.651Z,68.30
2022-08-18T03:07:46.775Z,68.20
2022-08-18T03:08:18.565Z,68.10
2022-08-18T03:08:51.727Z,68.40
2022-08-18T03:09:23.700Z,68.40
2022-08-18T03:09:55.541Z,68.20
2022-08-18T03:10:32.508Z,68.30
2022-08-18T03:11:05.495Z,68.10
2022-08-18T03:11:37.964Z,68.10
2022-08-18T03:12:10.667Z,68.10
2022-08-18T03:12:44.200Z,68.10
2022-08-18T03:13:15.989Z,69.40
2022-08-18T03:13:48.346Z,69.30
2022-08-18T03:14:20.949Z,68.90
2022-08-18T03:14:52.679Z,68.60
2022-08-18T03:15:24.505Z,68.80
2022-08-18T03:15:58.452Z,68.80
2022-08-18T03:16:32.698Z,69.50
2022-08-18T03:17:08.390Z,68.80
2022-08-18T03:17:40.261Z,69.30
2022-08-18T03:18:12.344Z,69.30
2022-08-18T03:18:46.563Z,69.70
2022-08-18T03:19:18.483Z,70.20
2022-08-18T03:19:50.250Z,69.90
2022-08-18T03:20:31.111Z,69.40
2022-08-18T03:21:12.217Z,69.70
2022-08-18T03:21:47.035Z,69.20
2022-08-18T03:22:28.280Z,69.40
2022-08-18T03:23:09.505Z,69.30
2022-08-18T03:23:42.707Z,68.90
2022-08-18T03:24:19.344Z,68.60
2022-08-18T03:24:54.383Z,68.60
2022-08-18T03:25:26.148Z,68.80
2022-08-18T03:25:57.953Z,68.90
2022-08-18T03:26:31.844Z,69.70
2022-08-18T03:27:07.872Z,69.20
2022-08-18T03:27:39.628Z,68.60
2022-08-18T03:28:12.203Z,67.70
2022-08-18T03:28:48.026Z,69.70
2022-08-18T03:29:21.325Z,69.10
2022-08-18T03:29:53.487Z,69.40
2022-08-18T03:30:25.268Z,69.50
2022-08-18T03:30:57.330Z,69.30
2022-08-18T03:31:31.433Z,69.30
2022-08-18T03:32:06.763Z,69.40
2022-08-18T03:32:38.562Z,70.00
2022-08-18T03:33:17.610Z,69.50
2022-08-18T03:33:51.545Z,69.80
2022-08-18T03:34:23.322Z,70.30
2022-08-18T03:34:55.170Z,70.40
2022-08-18T03:35:26.959Z,69.90
2022-08-18T03:36:15.730Z,69.40
2022-08-18T03:36:50.560Z,69.90
2022-08-18T03:37:22.351Z,69.90
2022-08-18T03:37:55.756Z,69.50
2022-08-18T03:38:27.534Z,69.10
2022-08-18T03:39:04.193Z,69.10
2022-08-18T03:39:36.568Z,69.10
2022-08-18T03:40:10.987Z,68.90
2022-08-18T03:40:43.254Z,68.70
2022-08-18T03:41:17.990Z,69.00
2022-08-18T03:42:09.928Z,68.90
2022-08-18T03:42:42.053Z,68.60
2022-08-18T03:43:50.016Z,68.50
2022-08-18T03:44:06.573Z,68.40
2022-08-18T03:44:38.383Z,68.40
2022-08-18T03:45:12.981Z,68.40
2022-08-18T03:45:49.414Z,68.70
2022-08-18T03:46:22.719Z,68.50
2022-08-18T03:46:54.602Z,68.80
2022-08-18T03:47:27.445Z,68.90
2022-08-18T03:48:00.663Z,68.60
2022-08-18T03:48:35.959Z,69.10
2022-08-18T03:49:07.834Z,68.90
2022-08-18T03:49:39.622Z,68.80
2022-08-18T03:50:14.203Z,68.60
2022-08-18T03:50:47.299Z,68.60
2022-08-18T03:51:25.464Z,69.40
2022-08-18T03:52:00.582Z,69.40
2022-08-18T03:52:32.453Z,69.30
2022-08-18T03:53:05.265Z,68.90
2022-08-18T03:53:38.006Z,68.60
2022-08-18T03:54:10.175Z,68.50
2022-08-18T03:54:42.113Z,68.50
2022-08-18T03:55:14.760Z,68.40
2022-08-18T03:55:46.546Z,68.30
2022-08-18T03:56:29.042Z,68.20
2022-08-18T03:57:01.596Z,68.90
2022-08-18T03:57:33.336Z,68.10
2022-08-18T03:58:14.797Z,68.00
2022-08-18T03:58:49.789Z,68.00
2022-08-18T03:59:24.776Z,67.90
2022-08-18T03:59:56.577Z,67.90
2022-08-18T04:00:30.373Z,67.80
2022-08-18T04:01:03.525Z,67.80
2022-08-18T04:01:39.627Z,67.80
2022-08-18T04:02:12.331Z,67.80
2022-08-18T04:02:44.150Z,67.70
2022-08-18T04:03:15.939Z,67.80
2022-08-18T04:03:51.488Z,67.80
2022-08-18T04:04:26.706Z,67.90
2022-08-18T04:04:58.626Z,67.70
2022-08-18T04:05:30.509Z,67.80
2022-08-18T04:06:02.277Z,67.70
2022-08-18T04:06:39.288Z,67.80
2022-08-18T04:07:17.192Z,67.80
2022-08-18T04:07:49.027Z,67.70
2022-08-18T04:08:20.817Z,68.30
2022-08-18T04:08:54.870Z,67.70
2022-08-18T04:09:29.391Z,67.60
2022-08-18T04:10:01.283Z,67.60
2022-08-18T04:10:35.524Z,67.80
2022-08-18T04:11:07.438Z,67.60
2022-08-18T04:11:43.308Z,67.50
2022-08-18T04:12:17.260Z,68.10
2022-08-18T04:12:49.978Z,67.60
2022-08-18T04:13:23.343Z,67.90
2022-08-18T04:13:57.812Z,67.80
2022-08-18T04:14:32.592Z,67.50
2022-08-18T04:15:04.955Z,67.40
2022-08-18T04:15:37.540Z,67.40
2022-08-18T04:16:09.837Z,67.70
2022-08-18T04:16:42.444Z,67.50
2022-08-18T04:17:14.588Z,67.50
2022-08-18T04:18:02.945Z,67.60
2022-08-18T04:18:36.482Z,67.60
2022-08-18T04:19:09.561Z,67.60
2022-08-18T04:19:42.006Z,67.40
2022-08-18T04:20:13.835Z,67.40
2022-08-18T04:20:59.638Z,67.60
2022-08-18T04:21:34.193Z,67.60
2022-08-18T04:22:06.175Z,67.50
2022-08-18T04:22:38.084Z,67.50
2022-08-18T04:23:09.837Z,67.40
2022-08-18T04:23:43.594Z,67.40
2022-08-18T04:24:16.118Z,67.50
2022-08-18T04:24:48.128Z,67.30
2022-08-18T04:25:21.809Z,67.30
2022-08-18T04:26:00.758Z,67.50
2022-08-18T04:26:35.576Z,67.40
2022-08-18T04:27:07.525Z,67.20
2022-08-18T04:27:42.209Z,67.40
2022-08-18T04:28:13.988Z,67.50
2022-08-18T04:28:46.379Z,67.60
2022-08-18T04:29:21.079Z,67.50
2022-08-18T04:29:53.080Z,67.50
2022-08-18T04:30:24.909Z,67.50
2022-08-18T04:30:59.376Z,67.40
2022-08-18T04:31:32.128Z,67.30
2022-08-18T04:32:04.954Z,67.30
2022-08-18T04:32:37.020Z,67.30
2022-08-18T04:33:08.814Z,67.20
2022-08-18T04:33:42.082Z,67.20
2022-08-18T04:34:14.965Z,67.30
2022-08-18T04:34:46.762Z,67.10
2022-08-18T04:35:18.670Z,67.10
2022-08-18T04:35:50.477Z,67.10
2022-08-18T04:36:22.451Z,67.20
2022-08-18T04:36:54.378Z,67.20
2022-08-18T04:37:26.325Z,67.00
2022-08-18T04:37:58.152Z,67.00
2022-08-18T04:38:30.345Z,67.30
2022-08-18T04:39:07.757Z,67.10
2022-08-18T04:39:39.701Z,67.20
2022-08-18T04:40:14.405Z,67.00
2022-08-18T04:40:47.375Z,67.00
2022-08-18T04:41:19.427Z,67.00
2022-08-18T04:41:52.250Z,67.10
2022-08-18T04:42:24.035Z,67.10
2022-08-18T04:42:55.849Z,67.20
2022-08-18T04:43:27.624Z,67.10
2022-08-18T04:44:02.446Z,67.00
2022-08-18T04:44:37.751Z,66.90
2022-08-18T04:45:09.956Z,67.00
2022-08-18T04:45:43.670Z,67.00
2022-08-18T04:46:15.408Z,67.10
2022-08-18T04:46:53.220Z,66.90
2022-08-18T04:47:25.119Z,66.90
2022-08-18T04:47:58.121Z,66.90
2022-08-18T04:48:33.471Z,66.80
2022-08-18T04:49:05.745Z,66.90
2022-08-18T04:49:37.619Z,66.90
2022-08-18T04:50:10.281Z,66.80
2022-08-18T04:50:43.251Z,66.70
2022-08-18T04:52:26.899Z,66.90
2022-08-18T04:52:39.686Z,66.80
2022-08-18T04:53:31.571Z,66.70
2022-08-18T04:54:03.423Z,66.80
2022-08-18T04:54:38.935Z,66.80
2022-08-18T04:55:10.905Z,66.90
2022-08-18T04:55:53.910Z,66.80
2022-08-18T04:56:33.305Z,66.70
2022-08-18T04:57:14.240Z,66.80
2022-08-18T04:57:46.120Z,66.90
2022-08-18T04:58:23.608Z,66.90
2022-08-18T04:59:07.906Z,66.80
2022-08-18T04:59:42.839Z,66.90
2022-08-18T05:00:15.123Z,67.00
2022-08-18T05:00:47.678Z,66.80
2022-08-18T05:01:22.749Z,66.70
2022-08-18T05:01:54.542Z,66.80
2022-08-18T05:02:26.329Z,66.70
2022-08-18T05:02:58.170Z,66.70
2022-08-18T05:03:29.974Z,66.80
2022-08-18T05:04:02.535Z,66.80
2022-08-18T05:04:37.456Z,66.90
2022-08-18T05:05:10.015Z,66.80
2022-08-18T05:05:41.804Z,67.10
2022-08-18T05:06:13.629Z,66.80
2022-08-18T05:06:47.249Z,66.80
2022-08-18T05:07:22.722Z,67.00
2022-08-18T05:07:54.614Z,66.90
2022-08-18T05:08:26.860Z,66.80
2022-08-18T05:09:02.091Z,66.90
2022-08-18T05:09:41.462Z,66.80
2022-08-18T05:10:17.464Z,66.80
2022-08-18T05:10:54.564Z,66.80
2022-08-18T05:11:34.512Z,66.70
2022-08-18T05:12:08.134Z,66.80
2022-08-18T05:12:43.287Z,66.80
2022-08-18T05:13:17.614Z,66.70
2022-08-18T05:13:52.172Z,66.70
2022-08-18T05:14:24.698Z,67.00
2022-08-18T05:14:59.578Z,66.80
2022-08-18T05:15:46.838Z,66.80
2022-08-18T05:16:27.181Z,66.80
2022-08-18T05:17:01.031Z,66.90
2022-08-18T05:17:32.871Z,66.90
2022-08-18T05:18:05.993Z,66.90
2022-08-18T05:18:40.445Z,66.90
2022-08-18T05:19:15.365Z,66.80
2022-08-18T05:19:51.630Z,66.80
2022-08-18T05:20:23.810Z,66.80
2022-08-18T05:20:57.053Z,66.80
2022-08-18T05:21:28.819Z,67.00
2022-08-18T05:22:02.862Z,66.90
2022-08-18T05:22:40.650Z,66.80
2022-08-18T05:23:12.451Z,66.80
2022-08-18T05:23:48.235Z,66.70
2022-08-18T05:24:22.006Z,66.70
2022-08-18T05:24:53.910Z,66.70
2022-08-18T05:25:25.778Z,66.60
2022-08-18T05:25:59.968Z,66.60
2022-08-18T05:26:32.683Z,66.70
2022-08-18T05:27:05.319Z,66.80
2022-08-18T05:27:39.618Z,66.70
2022-08-18T05:28:11.992Z,66.70
2022-08-18T05:28:44.473Z,66.80
2022-08-18T05:29:18.723Z,66.90
2022-08-18T05:29:51.933Z,66.90
2022-08-18T05:30:23.903Z,66.70
2022-08-18T05:30:56.821Z,66.60
2022-08-18T05:31:33.067Z,66.70
2022-08-18T05:32:07.768Z,66.80
2022-08-18T05:32:48.073Z,66.80
2022-08-18T05:33:21.586Z,66.70
2022-08-18T05:33:57.564Z,66.70
2022-08-18T05:34:29.807Z,66.60
2022-08-18T05:35:16.476Z,66.70
2022-08-18T05:35:53.327Z,66.70
2022-08-18T05:36:25.082Z,66.70
2022-08-18T05:37:11.539Z,66.70
2022-08-18T05:38:01.481Z,66.70
2022-08-18T05:39:13.750Z,66.80
2022-08-18T05:40:11.053Z,66.80
2022-08-18T05:40:46.069Z,66.90
2022-08-18T05:41:28.962Z,66.90
2022-08-18T05:42:06.790Z,67.30
2022-08-18T05:42:40.824Z,66.80
2022-08-18T05:43:15.202Z,66.90
2022-08-18T05:43:51.410Z,66.80
2022-08-18T05:44:34.722Z,66.80
2022-08-18T05:45:12.661Z,66.80
2022-08-18T05:45:44.725Z,66.80
2022-08-18T05:46:17.018Z,66.90
2022-08-18T05:47:04.920Z,66.80
2022-08-18T05:47:36.846Z,66.80
2022-08-18T05:48:08.693Z,66.70
2022-08-18T05:48:43.775Z,66.70
2022-08-18T05:49:16.555Z,66.80
2022-08-18T05:49:49.669Z,66.70
2022-08-18T05:50:21.571Z,66.70
2022-08-18T05:50:55.940Z,66.70
2022-08-18T05:51:48.570Z,66.60
2022-08-18T05:52:33.522Z,66.90
2022-08-18T05:53:14.908Z,67.10
2022-08-18T05:54:05.597Z,66.90
2022-08-18T05:55:04.315Z,66.70
2022-08-18T05:56:03.373Z,66.90
2022-08-18T05:56:48.917Z,66.80
2022-08-18T05:57:24.098Z,66.80
2022-08-18T05:58:05.990Z,66.80
2022-08-18T05:58:43.088Z,66.60
2022-08-18T05:59:26.304Z,66.90
2022-08-18T05:59:59.951Z,66.70
2022-08-18T06:00:32.830Z,67.20
2022-08-18T06:01:13.698Z,67.10
2022-08-18T06:01:52.508Z,67.30
2022-08-18T06:02:40.775Z,67.10
2022-08-18T06:03:20.439Z,66.90
2022-08-18T06:04:16.123Z,67.20
2022-08-18T06:05:14.188Z,67.20
2022-08-18T06:06:01.319Z,67.00
2022-08-18T06:06:36.472Z,67.00
2022-08-18T06:07:13.611Z,67.00
2022-08-18T06:07:58.821Z,67.00
2022-08-18T06:08:39.543Z,66.90
2022-08-18T06:09:25.967Z,67.10
2022-08-18T06:09:57.868Z,67.20
2022-08-18T06:10:31.191Z,67.20
2022-08-18T06:11:03.155Z,67.10
2022-08-18T06:11:34.914Z,67.00
2022-08-18T06:12:25.656Z,66.90
2022-08-18T06:13:02.788Z,67.00
2022-08-18T06:13:43.927Z,67.00
2022-08-18T06:14:16.121Z,67.10
2022-08-18T06:14:48.531Z,67.10
2022-08-18T06:15:44.885Z,67.00
2022-08-18T06:16:33.085Z,67.10
2022-08-18T06:17:39.536Z,67.20
2022-08-18T06:18:21.881Z,67.20
2022-08-18T06:19:12.967Z,67.20
2022-08-18T06:20:19.388Z,67.00
2022-08-18T06:21:02.921Z,67.00
2022-08-18T06:21:54.770Z,67.40
2022-08-18T06:23:01.875Z,67.20
2022-08-18T06:23:48.786Z,67.20
2022-08-18T06:24:20.631Z,67.30
2022-08-18T06:25:11.307Z,67.30
2022-08-18T06:26:13.706Z,67.30
2022-08-18T06:27:09.931Z,67.40
2022-08-18T06:27:56.071Z,67.30
2022-08-18T06:28:44.631Z,67.20
2022-08-18T06:29:38.761Z,67.30
2022-08-18T06:30:33.254Z,67.30
2022-08-18T06:31:45.287Z,67.30
2022-08-18T06:32:38.252Z,67.30
2022-08-18T06:33:34.623Z,67.50
2022-08-18T06:34:32.547Z,67.40
2022-08-18T06:35:18.825Z,67.50
2022-08-18T06:35:55.177Z,67.50
2022-08-18T06:36:46.234Z,67.40
2022-08-18T06:37:59.451Z,67.50
2022-08-18T06:38:48.016Z,67.40
2022-08-18T06:39:45.284Z,67.30
2022-08-18T06:40:17.209Z,67.30
2022-08-18T06:40:50.104Z,67.30
2022-08-18T06:41:42.882Z,67.40
2022-08-18T06:42:21.612Z,67.30
2022-08-18T06:42:53.567Z,67.20
2022-08-18T06:43:28.500Z,67.40
2022-08-18T06:44:04.015Z,67.50
2022-08-18T06:44:48.955Z,67.30
2022-08-18T06:45:33.959Z,67.40
2022-08-18T06:46:17.647Z,67.40
2022-08-18T06:46:56.176Z,67.20
2022-08-18T06:47:33.372Z,68.30
2022-08-18T06:48:32.530Z,66.60
2022-08-18T06:49:09.007Z,67.40
2022-08-18T06:49:57.024Z,67.40
2022-08-18T06:50:36.146Z,67.30
2022-08-18T06:51:12.162Z,67.20
2022-08-18T06:51:43.905Z,67.20
2022-08-18T06:52:25.425Z,67.30
2022-08-18T06:53:02.131Z,67.40
2022-08-18T06:54:30.110Z,67.40
2022-08-18T06:55:05.142Z,67.40
2022-08-18T06:55:44.938Z,67.70
